Oakesdale, WA

3:52 PM PDT on August 21, 2014 (GMT -0700)
Pullman-Moscow Regional | Change Station
CLOSE
Current Station
Airport
Location: Pullman,
Elevation: 2552 ft
Nearby Weather Stations

Elev 2552 ft 46.74 °N, 117.12 °W | Updated 59 minutes ago

Clear
Clear
77 °F
Feels Like 77 °F
N
5
Wind Variable Wind from Variable

Today
High -- | Low -- °F
--% Chance of Precip.
Yesterday
High -- | Low -- °F
Precip. -- in
5:53 AM 7:49 PM
Waning Crescent, 12% visible
Pressure 29.92 in
Visibility 10.0 miles
Clouds Clear
Dew Point 43 °F
Humidity 30%
Rainfall 0.00 in
Snow Depth Not available.
UV 7 out of 12
Pollen 5.60 out of 12
Air Quality Not available.
Flu Activity Not available.
METAR KPUW 212153Z AUTO VRB04KT 10SM CLR 25/06 A2995 RMK AO2 SLP132 T02500061

More Conditions Fewer Conditions

Pressure 29.92 in
Visibility 10.0 miles
Clouds Clear
Dew Point 43 °F
Humidity 30%
Rainfall 0.00 in
Snow Depth Not available.
UV 7 out of 12
Pollen 5.60 out of 12
Air Quality Not available.
Flu Activity Not available.
METAR KPUW 212153Z AUTO VRB04KT 10SM CLR 25/06 A2995 RMK AO2 SLP132 T02500061

More Conditions Fewer Conditions

10-Day Weather Forecast

Almanac

Astronomy

Aug. 21, 2014 Rise Set
Actual Time 5:53 AM PDT 7:49 PM PDT
Civil Twilight 5:21 AM PDT 8:21 PM PDT
Nautical Twilight 4:40 AM PDT 9:02 PM PDT
Astronomical Twilight 3:56 AM PDT 9:46 PM PDT
Moon 2:21 AM PDT 5:26 PM PDT
Length of Visible Light 15h 00m
Length of Day
13h 55m
Tomorrow will be 3m 8s shorter.
Waning Crescent, 12% of the Moon is Illuminated
Today
Waning Crescent
Aug 25
New
Sep 2
First Quarter
Sep 8
Full
Sep 15
Last Quarter

Today's Extremes

State Highs State Lows

Community

WunderPhotos

Upload Photos

1,746,044 photos uploaded!

WunderBlogs® & News

Nearby

Snow Depth

Station Depth Elevation
Quartz Peak 1 in 4700 ft
Sourdough Gulch 0 in 4000 ft
Bunchgrass Meadow 0 in 5000 ft
Moses Mountain 1 in 5300 ft
Sentinel Butte 0 in 4920 ft

Earthquake Activity

City Distance Mag. Time & Date
No recent earthquake activity has been reported nearby.
Minimum magnitude displayed is 2.5.

Coastal Water Temperatures

Place Temperature
No Stations Reporting

Nearby Weather Stations